Current Weather

Wadi Al Dawasir

Wadi Al Dawasir, Saudi Arabia (OEWD)

Report from: Wednesday, September 28, 2022 12:00 PM +03
Current time: Wednesday, September 28, 2022 12:42 PM +03

Nearby weather
Weather history
Weather forecast

Temperature37.0°C (98.6°F)
Heat index34.3°C (93.7°F)
Dew point2.0°C (35.6°F)
Winds 2 kts (1 m/s, 2.3 mph) East-Southeast (120°)
Clouds Sky clear
Altimeter29.91 in.Hg (1013 mB)
Relative humidity11 %
Density altitude2,605 ft. (794 m)
Remarks Ceiling and visibility OK
No significant changes expected in the next two hours
Flight conditions Visual Meteorological Conditions
Raw dataOEWD 280900Z 12002KT CAVOK 37/02 Q1013 NOSIG
An error has occurred. This application may no longer respond until reloaded. Reload 🗙